createdAt,value
2022-08-17T00:00:43.678Z,69.38
2022-08-17T00:03:17.693Z,69.36
2022-08-17T00:05:52.562Z,69.46
2022-08-17T00:08:24.227Z,69.49
2022-08-17T00:10:54.157Z,69.47
2022-08-17T00:13:38.930Z,69.72
2022-08-17T00:16:12.163Z,69.48
2022-08-17T00:19:01.268Z,69.89
2022-08-17T00:21:56.429Z,69.55
2022-08-17T00:24:18.364Z,69.59
2022-08-17T00:26:47.276Z,69.48
2022-08-17T00:29:19.570Z,69.42
2022-08-17T00:31:49.306Z,69.64
2022-08-17T00:34:17.664Z,69.86
2022-08-17T00:36:45.548Z,69.83
2022-08-17T00:39:13.433Z,69.47
2022-08-17T00:41:42.456Z,69.51
2022-08-17T00:44:12.372Z,69.56
2022-08-17T00:46:43.700Z,69.49
2022-08-17T00:49:13.439Z,69.48
2022-08-17T00:51:47.857Z,69.26
2022-08-17T00:54:30.265Z,69.27
2022-08-17T00:57:15.525Z,69.33
2022-08-17T01:00:01.875Z,69.61
2022-08-17T01:02:42.633Z,69.70
2022-08-17T01:05:18.564Z,70.06
2022-08-17T01:07:50.106Z,69.92
2022-08-17T01:11:00.004Z,69.78
2022-08-17T01:13:12.238Z,70.02
2022-08-17T01:15:46.580Z,69.90
2022-08-17T01:18:16.900Z,70.10
2022-08-17T01:20:49.082Z,70.29
2022-08-17T01:23:20.762Z,70.54
2022-08-17T01:25:54.557Z,70.60
2022-08-17T01:28:52.785Z,70.36
2022-08-17T01:31:14.650Z,70.80
2022-08-17T01:33:42.647Z,70.59
2022-08-17T01:36:10.912Z,70.46
2022-08-17T01:38:39.495Z,70.47
2022-08-17T01:41:12.638Z,70.57
2022-08-17T01:43:52.241Z,70.64
2022-08-17T01:46:27.888Z,70.49
2022-08-17T01:48:57.639Z,70.34
2022-08-17T01:51:30.843Z,70.44
2022-08-17T01:54:02.692Z,70.72
2022-08-17T01:56:32.798Z,70.99
2022-08-17T01:59:00.890Z,71.13
2022-08-17T02:01:32.446Z,71.01
2022-08-17T02:04:01.860Z,70.95
2022-08-17T02:06:47.125Z,70.55
2022-08-17T02:09:23.990Z,70.39
2022-08-17T02:11:58.450Z,70.24
2022-08-17T02:14:27.328Z,70.53
2022-08-17T02:16:56.190Z,70.36
2022-08-17T02:19:24.007Z,70.38
2022-08-17T02:21:55.553Z,70.37
2022-08-17T02:25:01.293Z,70.90
2022-08-17T02:27:15.545Z,70.79
2022-08-17T02:29:44.338Z,70.69
2022-08-17T02:32:30.512Z,70.82
2022-08-17T02:34:59.171Z,71.19
2022-08-17T02:37:29.011Z,71.62
2022-08-17T02:39:58.533Z,71.46
2022-08-17T02:42:34.059Z,71.32
2022-08-17T02:45:05.297Z,71.21
2022-08-17T02:47:33.981Z,71.63
2022-08-17T02:50:01.824Z,71.52
2022-08-17T02:52:41.962Z,71.60
2022-08-17T02:55:20.694Z,71.57
2022-08-17T02:57:49.559Z,71.76
2022-08-17T03:00:25.339Z,71.96
2022-08-17T03:02:53.460Z,71.93
2022-08-17T03:05:23.252Z,71.66
2022-08-17T03:07:52.292Z,71.85
2022-08-17T03:10:21.731Z,71.90
2022-08-17T03:12:50.751Z,71.89
2022-08-17T03:15:28.804Z,71.71
2022-08-17T03:17:57.730Z,71.80
2022-08-17T03:20:28.186Z,71.95
2022-08-17T03:23:03.041Z,72.27
2022-08-17T03:25:35.942Z,72.41
2022-08-17T03:28:06.078Z,72.49
2022-08-17T03:30:35.394Z,72.37
2022-08-17T03:33:05.511Z,72.73
2022-08-17T03:35:36.545Z,72.78
2022-08-17T03:38:05.263Z,72.78
2022-08-17T03:40:55.129Z,72.83
2022-08-17T03:43:22.656Z,72.58
2022-08-17T03:46:10.898Z,72.50
2022-08-17T03:49:15.680Z,72.21
2022-08-17T03:52:02.913Z,72.27
2022-08-17T03:54:51.320Z,71.92
2022-08-17T03:57:19.347Z,72.27
2022-08-17T03:59:47.963Z,72.79
2022-08-17T04:02:25.716Z,73.08
2022-08-17T04:04:54.324Z,73.35
2022-08-17T04:07:24.992Z,73.57
2022-08-17T04:09:52.956Z,73.28
2022-08-17T04:12:23.566Z,73.11
2022-08-17T04:14:54.359Z,73.15
2022-08-17T04:17:28.110Z,72.96
2022-08-17T04:19:56.212Z,73.05
2022-08-17T04:22:30.774Z,73.04
2022-08-17T04:25:27.574Z,73.17
2022-08-17T04:27:56.232Z,73.03
2022-08-17T04:30:25.265Z,72.83
2022-08-17T04:33:05.807Z,72.85
2022-08-17T04:35:47.140Z,72.79
2022-08-17T04:38:22.312Z,72.62
2022-08-17T04:41:12.983Z,72.70
2022-08-17T04:43:43.214Z,72.28
2022-08-17T04:46:14.702Z,72.27
2022-08-17T04:48:46.121Z,72.29
2022-08-17T04:51:18.595Z,72.29
2022-08-17T04:53:53.954Z,72.14
2022-08-17T04:56:26.129Z,71.88
2022-08-17T04:59:06.139Z,71.63
2022-08-17T05:01:36.559Z,71.58
2022-08-17T05:04:33.177Z,71.04
2022-08-17T05:06:55.757Z,70.54
2022-08-17T05:09:23.679Z,70.36
2022-08-17T05:11:52.360Z,70.54
2022-08-17T05:14:32.422Z,70.30
2022-08-17T05:17:07.234Z,70.27
2022-08-17T05:19:39.131Z,70.04
2022-08-17T05:22:07.173Z,70.53
2022-08-17T05:24:40.795Z,70.47
2022-08-17T05:27:14.361Z,70.40
2022-08-17T05:29:47.174Z,69.85
2022-08-17T05:32:38.550Z,69.83
2022-08-17T05:35:03.523Z,70.04
2022-08-17T05:37:31.375Z,70.10
2022-08-17T05:39:59.569Z,69.99
2022-08-17T05:42:27.572Z,70.17
2022-08-17T05:44:58.089Z,70.09
2022-08-17T05:47:27.294Z,69.93
2022-08-17T05:49:56.003Z,69.41
2022-08-17T05:52:42.946Z,68.92
2022-08-17T05:55:18.195Z,68.94
2022-08-17T05:57:56.146Z,69.09
2022-08-17T06:00:37.281Z,69.39
2022-08-17T06:03:41.660Z,69.27
2022-08-17T06:06:38.258Z,69.19
2022-08-17T06:09:27.728Z,69.44
2022-08-17T06:12:19.765Z,69.52
2022-08-17T06:15:08.361Z,69.37
2022-08-17T06:17:37.754Z,69.13
2022-08-17T06:20:11.391Z,68.70
2022-08-17T06:22:52.100Z,68.04
2022-08-17T06:25:34.968Z,67.91
2022-08-17T06:28:13.874Z,68.40
2022-08-17T06:31:01.053Z,68.11
2022-08-17T06:33:34.462Z,67.66
2022-08-17T06:36:25.364Z,67.39
2022-08-17T06:38:53.651Z,66.87
2022-08-17T06:41:38.120Z,66.21
2022-08-17T06:44:49.819Z,66.27
2022-08-17T06:47:28.872Z,65.99
2022-08-17T06:50:30.990Z,66.31
2022-08-17T06:53:04.691Z,66.27
2022-08-17T06:55:54.683Z,65.81
2022-08-17T06:58:29.708Z,65.72
2022-08-17T07:01:03.899Z,65.25
2022-08-17T07:03:41.205Z,65.11
2022-08-17T07:06:15.196Z,64.68
2022-08-17T07:08:49.918Z,64.39
2022-08-17T07:11:35.118Z,63.93
2022-08-17T07:14:39.943Z,64.23
2022-08-17T07:17:14.067Z,64.00
2022-08-17T07:19:45.655Z,63.83
2022-08-17T07:22:57.356Z,63.29
2022-08-17T07:25:29.021Z,63.20
2022-08-17T07:28:06.100Z,64.22
2022-08-17T07:30:47.104Z,63.98
2022-08-17T07:33:20.487Z,63.51
2022-08-17T07:35:50.072Z,63.77
2022-08-17T07:38:26.737Z,63.53
2022-08-17T07:40:59.988Z,63.17
2022-08-17T07:43:35.697Z,62.27
2022-08-17T07:46:30.352Z,62.16
2022-08-17T07:49:04.265Z,62.49
2022-08-17T07:51:36.727Z,61.30
2022-08-17T07:54:18.804Z,61.85
2022-08-17T07:57:04.855Z,62.92
2022-08-17T07:59:38.415Z,61.73
2022-08-17T08:02:31.096Z,61.28
2022-08-17T08:05:13.189Z,59.77
2022-08-17T08:07:55.078Z,60.03
2022-08-17T08:10:42.760Z,60.10
2022-08-17T08:13:24.553Z,60.22
2022-08-17T08:15:55.313Z,60.04
2022-08-17T08:18:55.270Z,59.06
2022-08-17T08:21:51.412Z,59.97
2022-08-17T08:24:37.288Z,59.30
2022-08-17T08:27:36.150Z,59.11
2022-08-17T08:30:18.348Z,58.96
2022-08-17T08:33:14.876Z,58.36
2022-08-17T08:35:48.641Z,57.45
2022-08-17T08:38:48.884Z,57.23
2022-08-17T08:41:30.136Z,56.13
2022-08-17T08:44:17.212Z,55.89
2022-08-17T08:47:00.549Z,55.59
2022-08-17T08:50:05.379Z,57.02
2022-08-17T08:53:09.255Z,55.49
2022-08-17T08:55:37.347Z,55.50
2022-08-17T08:58:40.454Z,55.17
2022-08-17T09:01:17.005Z,54.63
2022-08-17T09:04:21.531Z,54.59
2022-08-17T09:06:59.842Z,54.73
2022-08-17T09:09:43.902Z,54.35
2022-08-17T09:12:25.590Z,53.39
2022-08-17T09:15:32.240Z,52.88
2022-08-17T09:19:00.389Z,52.02
2022-08-17T09:21:38.188Z,51.02
2022-08-17T09:24:29.961Z,50.63
2022-08-17T09:27:01.496Z,51.00
2022-08-17T09:29:36.728Z,51.14
2022-08-17T09:32:24.432Z,47.40
2022-08-17T09:35:01.596Z,43.93
2022-08-17T09:37:53.416Z,44.72
2022-08-17T09:40:25.914Z,45.76
2022-08-17T09:43:01.341Z,45.77
2022-08-17T09:45:51.612Z,45.46
2022-08-17T09:48:50.873Z,41.17
2022-08-17T09:51:30.490Z,40.68
2022-08-17T09:54:21.016Z,40.75
2022-08-17T09:57:28.589Z,39.08
2022-08-17T10:00:17.404Z,37.03
2022-08-17T10:02:57.474Z,35.27
2022-08-17T10:05:28.272Z,36.83
2022-08-17T10:08:30.241Z,38.10
2022-08-17T10:11:12.174Z,39.23
2022-08-17T10:14:01.210Z,39.90
2022-08-17T10:16:43.408Z,39.93
2022-08-17T10:19:37.899Z,37.51
2022-08-17T10:22:54.933Z,35.28
2022-08-17T10:25:54.771Z,33.78
2022-08-17T10:28:30.336Z,31.67
2022-08-17T10:31:33.062Z,32.73
2022-08-17T10:33:59.704Z,34.08
2022-08-17T10:36:43.313Z,35.54
2022-08-17T10:39:19.914Z,33.31
2022-08-17T10:41:52.772Z,31.98
2022-08-17T10:44:44.759Z,32.36
2022-08-17T10:47:15.975Z,33.46
2022-08-17T10:49:54.051Z,33.32
2022-08-17T10:52:28.127Z,33.53
2022-08-17T10:54:59.026Z,31.99
2022-08-17T10:57:26.830Z,32.64
2022-08-17T10:59:59.595Z,32.72
2022-08-17T11:02:40.840Z,33.77
2022-08-17T11:05:17.492Z,34.66
2022-08-17T11:08:01.772Z,35.29
2022-08-17T11:10:42.320Z,34.71
2022-08-17T11:13:35.578Z,35.49
2022-08-17T11:16:22.063Z,36.93
2022-08-17T11:19:11.222Z,37.61
2022-08-17T11:22:15.629Z,39.45
2022-08-17T11:24:52.673Z,39.65
2022-08-17T11:27:31.003Z,39.60
2022-08-17T11:30:08.432Z,40.15
2022-08-17T11:32:47.834Z,42.08
2022-08-17T11:35:20.927Z,41.57
2022-08-17T11:38:28.489Z,41.82
2022-08-17T11:41:46.319Z,41.33
2022-08-17T11:44:20.794Z,40.99
2022-08-17T11:47:12.704Z,41.93
2022-08-17T11:50:27.979Z,42.43
2022-08-17T11:52:56.315Z,43.49
2022-08-17T11:55:37.482Z,44.07
2022-08-17T11:58:26.937Z,43.91
2022-08-17T12:00:56.762Z,44.07
2022-08-17T12:03:43.398Z,44.12
2022-08-17T12:06:44.995Z,44.02
2022-08-17T12:09:24.903Z,45.70
2022-08-17T12:12:12.876Z,46.48
2022-08-17T12:15:09.695Z,45.85
2022-08-17T12:17:40.717Z,46.87
2022-08-17T12:20:24.582Z,47.60
2022-08-17T12:23:05.034Z,48.16
2022-08-17T12:26:09.464Z,48.02
2022-08-17T12:28:44.345Z,49.06
2022-08-17T12:31:19.740Z,48.62
2022-08-17T12:33:50.120Z,48.90
2022-08-17T12:36:26.218Z,48.25
2022-08-17T12:39:14.387Z,47.17
2022-08-17T12:41:55.455Z,47.29
2022-08-17T12:44:28.481Z,46.09
2022-08-17T12:47:07.704Z,46.28
2022-08-17T12:49:38.006Z,46.27
2022-08-17T12:52:10.069Z,46.42
2022-08-17T12:54:37.728Z,45.97
2022-08-17T12:57:12.680Z,45.93
2022-08-17T12:59:43.772Z,46.16
2022-08-17T13:02:39.520Z,45.39
2022-08-17T13:05:17.862Z,45.79
2022-08-17T13:07:46.695Z,45.51
2022-08-17T13:10:36.317Z,45.16
2022-08-17T13:13:22.320Z,45.19
2022-08-17T13:15:53.506Z,44.90
2022-08-17T13:18:42.458Z,44.74
2022-08-17T13:21:19.261Z,44.22
2022-08-17T13:24:03.332Z,44.76
2022-08-17T13:26:38.111Z,45.53
2022-08-17T13:29:09.004Z,45.52
2022-08-17T13:31:52.796Z,45.56
2022-08-17T13:34:24.369Z,46.76
2022-08-17T13:37:20.750Z,47.51
2022-08-17T13:39:51.760Z,47.58
2022-08-17T13:42:50.332Z,47.74
2022-08-17T13:45:36.656Z,47.70
2022-08-17T13:48:23.653Z,47.86
2022-08-17T13:51:03.694Z,48.09
2022-08-17T13:53:36.393Z,47.63
2022-08-17T13:56:37.950Z,48.52
2022-08-17T13:59:05.489Z,48.24
2022-08-17T14:01:44.002Z,48.79
2022-08-17T14:04:16.310Z,48.25
2022-08-17T14:06:54.144Z,47.19
2022-08-17T14:09:26.252Z,47.38
2022-08-17T14:11:56.820Z,48.53
2022-08-17T14:14:25.605Z,49.20
2022-08-17T14:16:54.142Z,49.50
2022-08-17T14:19:22.083Z,49.12
2022-08-17T14:21:50.391Z,48.79
2022-08-17T14:24:35.187Z,48.58
2022-08-17T14:27:05.541Z,47.49
2022-08-17T14:29:34.512Z,47.51
2022-08-17T14:32:11.412Z,47.66
2022-08-17T14:34:39.156Z,47.65
2022-08-17T14:37:06.892Z,47.34
2022-08-17T14:39:34.778Z,46.05
2022-08-17T14:42:02.703Z,46.53
2022-08-17T14:44:30.513Z,46.74
2022-08-17T14:46:58.290Z,45.88
2022-08-17T14:49:26.317Z,45.79
2022-08-17T14:51:54.161Z,47.04
2022-08-17T14:54:33.272Z,47.99
2022-08-17T14:57:09.375Z,48.24
2022-08-17T14:59:55.240Z,47.89
2022-08-17T15:02:29.882Z,47.88
2022-08-17T15:05:01.872Z,47.42
2022-08-17T15:07:30.451Z,47.89
2022-08-17T15:10:02.486Z,47.34
2022-08-17T15:12:33.649Z,47.36
2022-08-17T15:15:07.108Z,47.01
2022-08-17T15:17:44.782Z,47.33
2022-08-17T15:20:21.893Z,47.10
2022-08-17T15:22:51.181Z,47.44
2022-08-17T15:25:19.440Z,48.09
2022-08-17T15:27:47.609Z,47.16
2022-08-17T15:30:15.832Z,47.27
2022-08-17T15:32:45.866Z,47.91
2022-08-17T15:35:27.498Z,47.41
2022-08-17T15:38:10.684Z,47.83
2022-08-17T15:40:45.455Z,46.74
2022-08-17T15:43:17.014Z,46.30
2022-08-17T15:45:58.742Z,46.63
2022-08-17T15:48:43.825Z,47.57
2022-08-17T15:51:20.099Z,48.11
2022-08-17T15:53:54.812Z,48.78
2022-08-17T15:56:23.128Z,48.98
2022-08-17T15:58:51.062Z,49.14
2022-08-17T16:03:01.946Z,49.42
2022-08-17T16:04:30.528Z,49.32
2022-08-17T16:07:00.243Z,49.56
2022-08-17T16:09:28.147Z,49.71
2022-08-17T16:11:56.468Z,50.27
2022-08-17T16:14:34.137Z,50.88
2022-08-17T16:17:04.788Z,51.22
2022-08-17T16:19:44.297Z,51.25
2022-08-17T16:22:13.250Z,50.35
2022-08-17T16:24:47.753Z,50.14
2022-08-17T16:27:25.541Z,51.06
2022-08-17T16:29:54.405Z,51.27
2022-08-17T16:32:31.679Z,50.98
2022-08-17T16:35:03.251Z,50.60
2022-08-17T16:37:31.061Z,51.26
2022-08-17T16:40:02.556Z,50.61
2022-08-17T16:42:33.405Z,50.91
2022-08-17T16:45:09.828Z,50.87
2022-08-17T16:47:38.284Z,50.91
2022-08-17T16:50:07.824Z,51.71
2022-08-17T16:52:36.695Z,50.76
2022-08-17T16:55:06.879Z,51.08
2022-08-17T16:57:37.436Z,50.85
2022-08-17T17:00:16.996Z,50.95
2022-08-17T17:02:47.889Z,51.48
2022-08-17T17:05:39.932Z,51.80
2022-08-17T17:08:15.455Z,51.72
2022-08-17T17:10:47.662Z,51.84
2022-08-17T17:13:26.087Z,52.22
2022-08-17T17:16:18.350Z,52.25
2022-08-17T17:19:08.789Z,52.46
2022-08-17T17:21:52.385Z,52.59
2022-08-17T17:24:39.054Z,52.80
2022-08-17T17:27:35.330Z,53.07
2022-08-17T17:30:40.015Z,53.76
2022-08-17T17:33:18.477Z,53.86
2022-08-17T17:36:06.966Z,53.85
2022-08-17T17:38:43.039Z,54.17
2022-08-17T17:41:26.116Z,54.25
2022-08-17T17:44:22.073Z,54.18
2022-08-17T17:46:55.272Z,54.31
2022-08-17T17:49:24.909Z,54.32
2022-08-17T17:52:10.228Z,54.34
2022-08-17T17:54:58.495Z,54.46
2022-08-17T17:57:45.098Z,54.84
2022-08-17T18:00:26.154Z,55.23
2022-08-17T18:03:00.984Z,55.09
2022-08-17T18:06:01.230Z,55.74
2022-08-17T18:08:52.959Z,56.02
2022-08-17T18:11:27.110Z,56.03
2022-08-17T18:14:21.854Z,56.19
2022-08-17T18:16:55.847Z,56.09
2022-08-17T18:19:25.630Z,56.07
2022-08-17T18:22:02.888Z,55.99
2022-08-17T18:24:34.604Z,56.20
2022-08-17T18:27:08.670Z,56.54
2022-08-17T18:29:47.810Z,56.47
2022-08-17T18:32:37.511Z,56.65
2022-08-17T18:35:07.923Z,56.84
2022-08-17T18:37:42.717Z,57.50
2022-08-17T18:40:16.449Z,57.63
2022-08-17T18:42:57.864Z,57.70
2022-08-17T18:45:49.436Z,58.09
2022-08-17T18:49:15.795Z,57.82
2022-08-17T18:51:43.585Z,58.09
2022-08-17T18:54:23.993Z,58.12
2022-08-17T18:56:56.059Z,58.27
2022-08-17T18:59:42.087Z,58.78
2022-08-17T19:02:43.383Z,58.84
2022-08-17T19:05:41.012Z,59.24
2022-08-17T19:08:17.901Z,59.46
2022-08-17T19:10:49.035Z,59.63
2022-08-17T19:13:27.842Z,59.47
2022-08-17T19:16:14.815Z,59.59
2022-08-17T19:18:58.025Z,59.77
2022-08-17T19:21:30.557Z,59.69
2022-08-17T19:24:01.729Z,59.98
2022-08-17T19:26:50.987Z,59.83
2022-08-17T19:29:41.220Z,59.88
2022-08-17T19:32:10.979Z,60.14
2022-08-17T19:34:44.594Z,60.40
2022-08-17T19:37:44.947Z,60.63
2022-08-17T19:40:51.104Z,60.85
2022-08-17T19:43:23.122Z,61.30
2022-08-17T19:46:06.333Z,61.28
2022-08-17T19:48:54.210Z,61.48
2022-08-17T19:51:36.065Z,61.53
2022-08-17T19:54:26.502Z,61.57
2022-08-17T19:57:04.771Z,61.88
2022-08-17T19:59:50.812Z,61.89
2022-08-17T20:02:40.205Z,62.10
2022-08-17T20:05:26.514Z,61.72
2022-08-17T20:08:11.493Z,61.86
2022-08-17T20:10:54.447Z,61.92
2022-08-17T20:13:34.012Z,61.93
2022-08-17T20:16:03.792Z,62.08
2022-08-17T20:19:01.757Z,61.99
2022-08-17T20:21:37.275Z,62.07
2022-08-17T20:24:21.006Z,62.07
2022-08-17T20:26:59.947Z,62.10
2022-08-17T20:29:40.073Z,62.06
2022-08-17T20:32:18.752Z,62.04
2022-08-17T20:34:47.994Z,62.08
2022-08-17T20:37:15.777Z,62.57
2022-08-17T20:39:43.573Z,62.23
2022-08-17T20:42:30.687Z,62.39
2022-08-17T20:45:05.907Z,62.32
2022-08-17T20:48:07.370Z,62.38
2022-08-17T20:51:12.255Z,62.72
2022-08-17T20:53:49.339Z,62.54
2022-08-17T20:56:45.093Z,62.37
2022-08-17T20:59:30.443Z,62.34
2022-08-17T21:02:18.048Z,62.50
2022-08-17T21:04:50.091Z,62.45
2022-08-17T21:07:43.224Z,62.65
2022-08-17T21:10:25.654Z,62.90
2022-08-17T21:13:13.774Z,63.05
2022-08-17T21:15:51.809Z,63.26
2022-08-17T21:18:28.550Z,62.94
2022-08-17T21:21:19.989Z,62.79
2022-08-17T21:24:15.451Z,63.03
2022-08-17T21:26:56.192Z,62.91
2022-08-17T21:29:32.505Z,62.78
2022-08-17T21:32:01.602Z,62.67
2022-08-17T21:34:44.966Z,62.73
2022-08-17T21:37:18.678Z,62.67
2022-08-17T21:40:02.655Z,62.86
2022-08-17T21:42:34.516Z,62.88
2022-08-17T21:45:22.645Z,62.95
2022-08-17T21:48:06.949Z,63.19
2022-08-17T21:50:35.668Z,63.08
2022-08-17T21:53:04.904Z,63.22
2022-08-17T21:55:34.585Z,63.24
2022-08-17T21:58:19.384Z,63.82
2022-08-17T22:00:47.602Z,64.07
2022-08-17T22:03:26.074Z,64.10
2022-08-17T22:05:53.843Z,64.33
2022-08-17T22:08:25.772Z,64.35
2022-08-17T22:11:02.023Z,64.47
2022-08-17T22:13:30.239Z,64.77
2022-08-17T22:16:04.132Z,64.89
2022-08-17T22:18:45.207Z,64.79
2022-08-17T22:21:12.978Z,65.15
2022-08-17T22:24:01.644Z,65.19
2022-08-17T22:27:00.587Z,65.35
2022-08-17T22:29:57.821Z,65.28
2022-08-17T22:32:41.616Z,65.51
2022-08-17T22:35:28.081Z,65.68
2022-08-17T22:37:57.414Z,65.76
2022-08-17T22:40:33.721Z,65.86
2022-08-17T22:43:03.788Z,66.14
2022-08-17T22:45:33.605Z,66.37
2022-08-17T22:48:02.185Z,66.40
2022-08-17T22:50:33.145Z,66.50
2022-08-17T22:53:22.212Z,66.33
2022-08-17T22:56:11.993Z,66.18
2022-08-17T22:59:08.334Z,66.06
2022-08-17T23:01:36.391Z,65.76
2022-08-17T23:04:05.987Z,65.91
2022-08-17T23:06:35.934Z,66.19
2022-08-17T23:09:06.122Z,66.28
2022-08-17T23:11:49.089Z,66.13
2022-08-17T23:14:21.562Z,66.38
2022-08-17T23:16:50.982Z,66.58
2022-08-17T23:19:21.257Z,66.59
2022-08-17T23:21:52.837Z,66.77
2022-08-17T23:24:27.031Z,66.74
2022-08-17T23:26:57.471Z,66.71
2022-08-17T23:29:29.396Z,66.77
2022-08-17T23:31:59.881Z,66.74
2022-08-17T23:34:28.725Z,66.89
2022-08-17T23:36:56.598Z,67.11
2022-08-17T23:39:27.749Z,66.91
2022-08-17T23:42:00.926Z,67.16
2022-08-17T23:44:28.907Z,67.15
2022-08-17T23:46:56.875Z,67.26
2022-08-17T23:49:25.341Z,67.26
2022-08-17T23:51:56.073Z,67.14
2022-08-17T23:54:43.842Z,67.50
2022-08-17T23:57:16.026Z,67.57
2022-08-17T23:59:44.387Z,67.61
